Time;durP1;ratioP1;P1;durP2;ratioP2;P2;SDS_P1;SDS_P2;PMS_P1;PMS_P2;Temp;Humidity;BMP_temperature;BMP_pressure;BME280_temperature;BME280_humidity;BME280_pressure;Samples;Min_cycle;Max_cycle;Signal;HPM_P1;HPM_P2
2020/12/04 00:00:44;;;;;;;28.17;10.25;;;18.70;45.40;;;;;;5063825;28;20072;-70
2020/12/04 00:03:11;;;;;;;23.88;10.60;;;18.70;45.70;;;;;;5064229;28;20458;-70
2020/12/04 00:05:37;;;;;;;23.80;11.13;;;18.60;45.50;;;;;;5071350;28;20045;-70
2020/12/04 00:08:04;;;;;;;21.42;11.02;;;18.60;45.40;;;;;;5072205;28;20078;-70
2020/12/04 00:10:30;;;;;;;22.42;11.32;;;18.60;45.70;;;;;;5071366;28;20021;-70
2020/12/04 00:12:56;;;;;;;19.73;9.75;;;18.60;45.30;;;;;;5074433;28;20025;-70
2020/12/04 00:15:23;;;;;;;19.92;9.80;;;18.50;46.10;;;;;;5071871;28;20028;-71
2020/12/04 00:17:49;;;;;;;24.15;12.35;;;18.50;46.30;;;;;;5074759;28;20028;-70
2020/12/04 00:20:16;;;;;;;28.15;11.07;;;18.50;46.10;;;;;;5072712;28;20108;-71
2020/12/04 00:22:43;;;;;;;22.23;10.02;;;18.50;45.40;;;;;;5072807;28;20048;-70
2020/12/04 00:25:09;;;;;;;28.67;10.93;;;18.50;45.40;;;;;;5074945;28;20028;-70
2020/12/04 00:27:36;;;;;;;33.80;12.15;;;18.50;46.60;;;;;;5073031;28;20129;-70
2020/12/04 00:30:03;;;;;;;27.58;10.15;;;18.40;45.90;;;;;;5071646;28;20090;-71
2020/12/04 00:32:29;;;;;;;40.75;11.68;;;18.30;44.80;;;;;;5069338;28;20067;-70
2020/12/04 00:34:55;;;;;;;40.78;11.80;;;18.20;44.70;;;;;;5067725;28;20465;-71
2020/12/04 00:37:22;;;;;;;29.98;11.48;;;18.20;44.90;;;;;;5068104;28;22014;-70
2020/12/04 00:39:48;;;;;;;31.50;11.13;;;18.10;44.60;;;;;;5070535;28;20482;-70
2020/12/04 00:42:15;;;;;;;26.00;12.80;;;18.10;45.50;;;;;;5073081;28;20446;-70
2020/12/04 00:44:42;;;;;;;22.40;10.95;;;18.00;45.50;;;;;;5070375;28;20051;-70
2020/12/04 00:47:08;;;;;;;21.63;11.05;;;17.80;45.10;;;;;;5070600;28;20085;-70
2020/12/04 00:49:35;;;;;;;37.22;13.85;;;17.80;46.40;;;;;;5069044;28;20032;-70
2020/12/04 00:52:01;;;;;;;33.35;21.45;;;17.80;46.00;;;;;;5069912;28;20012;-71
2020/12/04 00:54:28;;;;;;;39.85;23.98;;;17.80;45.80;;;;;;5066488;28;20954;-71
2020/12/04 00:56:54;;;;;;;27.20;14.82;;;17.70;45.80;;;;;;5065715;28;20025;-70
2020/12/04 00:59:21;;;;;;;22.30;11.13;;;17.50;45.90;;;;;;5074435;28;20069;-71
2020/12/04 01:01:47;;;;;;;16.25;9.60;;;17.40;46.10;;;;;;5072365;28;20107;-70
2020/12/04 01:04:14;;;;;;;21.27;9.15;;;17.20;46.30;;;;;;5071666;28;20454;-70
2020/12/04 01:06:40;;;;;;;20.67;9.93;;;17.20;46.40;;;;;;5068442;28;20419;-70
2020/12/04 01:09:08;;;;;;;17.27;8.13;;;17.10;46.30;;;;;;5069227;28;20027;-70
2020/12/04 01:11:34;;;;;;;16.13;7.15;;;16.80;47.10;;;;;;5072801;28;20028;-70
2020/12/04 01:14:01;;;;;;;28.45;9.60;;;16.60;47.10;;;;;;5070478;28;20032;-71
2020/12/04 01:16:28;;;;;;;16.52;8.15;;;16.50;47.50;;;;;;5072714;28;20103;-70
2020/12/04 01:18:54;;;;;;;19.95;7.47;;;16.50;47.20;;;;;;5068134;28;20060;-69
2020/12/04 01:21:21;;;;;;;22.23;9.30;;;16.50;47.10;;;;;;5079330;28;20020;-69
2020/12/04 01:23:50;;;;;;;14.32;8.10;;;16.50;47.20;;;;;;5069564;28;20060;-70
2020/12/04 01:26:17;;;;;;;20.70;8.45;;;16.50;47.30;;;;;;5073040;28;20043;-70
2020/12/04 01:28:43;;;;;;;14.70;8.05;;;16.40;47.10;;;;;;5069234;28;20020;-69
2020/12/04 01:31:10;;;;;;;16.40;6.68;;;16.40;47.30;;;;;;5070285;28;20028;-69
2020/12/04 01:33:36;;;;;;;21.65;9.02;;;16.30;47.30;;;;;;5068961;28;20040;-69
2020/12/04 01:36:03;;;;;;;24.25;9.25;;;16.20;47.60;;;;;;5066210;28;20094;-69
2020/12/04 01:38:30;;;;;;;16.77;9.20;;;16.30;47.60;;;;;;5071659;28;20020;-69
2020/12/04 01:41:03;;;;;;;18.15;7.95;;;16.40;47.10;;;;;;5068575;28;20378;-70
2020/12/04 01:43:29;;;;;;;23.00;8.98;;;16.30;47.10;;;;;;5071983;28;20108;-70
2020/12/04 01:45:57;;;;;;;20.30;9.02;;;16.10;47.10;;;;;;5070838;28;20142;-70
2020/12/04 01:48:24;;;;;;;20.77;8.80;;;16.10;47.30;;;;;;5072962;28;20343;-70
2020/12/04 01:50:52;;;;;;;24.30;9.68;;;16.10;47.40;;;;;;5066679;28;20442;-70
2020/12/04 01:53:19;;;;;;;19.10;8.90;;;16.00;47.20;;;;;;5066648;28;20033;-70
2020/12/04 01:55:46;;;;;;;20.15;8.80;;;15.90;47.50;;;;;;5068490;28;20036;-69
2020/12/04 01:58:13;;;;;;;22.30;9.45;;;15.90;47.60;;;;;;5068833;28;20020;-70
2020/12/04 02:00:39;;;;;;;26.77;11.00;;;15.80;47.50;;;;;;5072066;28;20366;-70
2020/12/04 02:03:08;;;;;;;17.60;10.38;;;15.90;47.60;;;;;;5073493;28;20021;-70
2020/12/04 02:05:41;;;;;;;19.33;9.23;;;15.80;47.30;;;;;;5066030;28;20024;-70
2020/12/04 02:08:20;;;;;;;20.20;8.93;;;15.90;47.30;;;;;;5070049;28;20039;-70
2020/12/04 02:10:52;;;;;;;22.60;9.75;;;15.70;47.40;;;;;;5070403;28;20035;-70
2020/12/04 02:13:19;;;;;;;20.60;10.43;;;15.70;47.60;;;;;;5071598;28;20425;-70
2020/12/04 02:15:45;;;;;;;22.02;9.38;;;15.80;47.30;;;;;;5070096;28;20047;-70
2020/12/04 02:18:15;;;;;;;22.13;9.40;;;15.70;47.40;;;;;;5068871;28;20032;-70
2020/12/04 02:20:41;;;;;;;22.10;12.10;;;15.60;47.80;;;;;;5068329;28;21364;-70
2020/12/04 02:23:12;;;;;;;19.80;9.77;;;15.40;47.90;;;;;;5066687;28;20354;-70
2020/12/04 02:25:38;;;;;;;24.02;11.85;;;15.40;48.20;;;;;;5071599;28;20346;-70
2020/12/04 02:28:05;;;;;;;19.95;9.15;;;15.30;48.30;;;;;;5062947;28;20111;-70
2020/12/04 02:30:36;;;;;;;17.02;8.13;;;15.20;48.60;;;;;;5072287;28;20226;-70
2020/12/04 02:33:03;;;;;;;19.42;9.00;;;15.20;48.80;;;;;;5066986;28;20167;-70
2020/12/04 02:35:30;;;;;;;18.83;10.73;;;15.10;49.30;;;;;;5073979;28;20103;-70
2020/12/04 02:37:57;;;;;;;20.80;10.32;;;15.10;49.20;;;;;;5073547;28;20036;-70
2020/12/04 02:40:23;;;;;;;21.20;10.13;;;15.10;49.00;;;;;;5074082;28;20021;-70
2020/12/04 02:42:50;;;;;;;20.90;10.25;;;15.10;48.90;;;;;;5073925;28;20036;-70
2020/12/04 02:45:17;;;;;;;24.40;9.52;;;15.00;49.10;;;;;;5078136;28;20059;-70
2020/12/04 02:47:43;;;;;;;29.45;18.15;;;14.90;49.50;;;;;;5072470;28;20363;-70
2020/12/04 02:50:10;;;;;;;18.52;11.07;;;14.80;49.50;;;;;;5076839;28;20359;-69
2020/12/04 02:52:36;;;;;;;16.15;8.48;;;14.80;49.60;;;;;;5073428;28;20028;-70
2020/12/04 02:55:03;;;;;;;13.40;8.52;;;14.70;49.50;;;;;;5072731;28;20107;-70
2020/12/04 02:57:30;;;;;;;15.18;8.20;;;14.70;49.80;;;;;;5071792;28;20056;-70
2020/12/04 02:59:56;;;;;;;14.60;7.57;;;14.70;49.50;;;;;;5076983;28;20079;-70
2020/12/04 03:02:22;;;;;;;23.10;8.27;;;14.70;49.30;;;;;;5072096;28;20026;-69
2020/12/04 03:04:49;;;;;;;21.08;6.85;;;14.60;49.60;;;;;;5071724;28;20513;-69
2020/12/04 03:07:15;;;;;;;15.48;7.05;;;14.60;49.60;;;;;;5071071;28;20099;-70
2020/12/04 03:09:42;;;;;;;20.15;8.82;;;14.60;49.30;;;;;;5066935;28;20512;-70
2020/12/04 03:12:08;;;;;;;15.68;7.57;;;14.70;49.20;;;;;;5072472;28;20035;-70
2020/12/04 03:14:35;;;;;;;19.45;7.25;;;14.70;49.40;;;;;;5074263;28;20442;-70
2020/12/04 03:17:01;;;;;;;19.98;7.28;;;14.70;49.30;;;;;;5076809;28;20056;-69
2020/12/04 03:19:27;;;;;;;16.83;7.65;;;14.80;49.30;;;;;;5077207;28;20465;-70
2020/12/04 03:21:55;;;;;;;17.88;7.97;;;14.80;49.20;;;;;;5077338;28;20028;-70
2020/12/04 03:24:21;;;;;;;15.00;7.13;;;14.70;49.70;;;;;;5077848;28;20020;-69
2020/12/04 03:26:47;;;;;;;15.50;6.68;;;14.60;49.90;;;;;;5088627;28;20022;-69
2020/12/04 03:29:14;;;;;;;20.38;7.85;;;14.70;49.50;;;;;;5074123;28;20028;-69
2020/12/04 03:31:40;;;;;;;14.60;6.50;;;14.70;49.30;;;;;;5068784;28;20044;-70
2020/12/04 03:34:07;;;;;;;16.70;6.88;;;14.80;49.50;;;;;;5065893;28;20074;-69
2020/12/04 03:36:33;;;;;;;20.40;7.00;;;14.80;49.40;;;;;;5065951;28;20486;-70
2020/12/04 03:39:00;;;;;;;12.10;6.35;;;14.80;49.30;;;;;;5075248;28;20043;-69
2020/12/04 03:41:26;;;;;;;23.60;8.15;;;14.80;49.20;;;;;;5074365;28;20449;-70
2020/12/04 03:43:53;;;;;;;17.45;6.43;;;14.80;49.10;;;;;;5064181;28;20512;-70
2020/12/04 03:46:19;;;;;;;17.33;7.07;;;14.80;49.00;;;;;;5076691;28;20037;-69
2020/12/04 03:48:45;;;;;;;20.70;6.65;;;14.80;49.10;;;;;;5088368;28;20028;-70
2020/12/04 03:51:12;;;;;;;17.15;6.55;;;14.90;49.20;;;;;;5069260;28;20108;-70
2020/12/04 03:53:38;;;;;;;22.30;7.10;;;14.90;49.10;;;;;;5066012;28;20116;-70
2020/12/04 03:56:05;;;;;;;25.52;7.63;;;14.80;49.30;;;;;;5059255;28;20439;-72
2020/12/04 03:58:31;;;;;;;10.35;6.60;;;14.80;49.40;;;;;;5066985;28;20050;-72
2020/12/04 04:00:58;;;;;;;17.27;8.07;;;14.70;49.70;;;;;;5063915;28;20017;-71
2020/12/04 04:03:24;;;;;;;15.75;6.82;;;14.60;49.90;;;;;;5065835;28;20363;-71
2020/12/04 04:05:51;;;;;;;22.08;9.80;;;14.60;49.90;;;;;;5072687;28;20047;-71
2020/12/04 04:08:17;;;;;;;16.20;8.18;;;14.60;49.80;;;;;;5068063;28;20032;-71
2020/12/04 04:10:44;;;;;;;21.33;9.13;;;14.80;49.60;;;;;;5075012;28;20036;-72
2020/12/04 04:13:10;;;;;;;22.55;8.07;;;14.70;49.60;;;;;;5075697;28;20025;-72
2020/12/04 04:15:37;;;;;;;17.85;8.02;;;14.60;49.80;;;;;;5075796;28;20036;-72
2020/12/04 04:18:03;;;;;;;13.65;6.30;;;14.60;49.80;;;;;;5076227;28;20150;-72
2020/12/04 04:20:31;;;;;;;14.35;7.30;;;14.50;50.20;;;;;;5093929;28;20013;-72
2020/12/04 04:22:58;;;;;;;16.45;6.53;;;14.50;50.10;;;;;;5071569;28;20123;-72
2020/12/04 04:25:24;;;;;;;18.65;7.20;;;14.50;50.10;;;;;;5076063;28;20109;-72
2020/12/04 04:27:51;;;;;;;19.17;6.47;;;14.60;50.20;;;;;;5075424;28;20029;-72
2020/12/04 04:30:17;;;;;;;14.52;6.50;;;14.60;49.90;;;;;;5075923;28;20035;-72
2020/12/04 04:32:44;;;;;;;40.38;21.95;;;14.70;49.80;;;;;;5086077;28;20054;-72
2020/12/04 04:35:10;;;;;;;48.75;25.27;;;14.70;49.90;;;;;;5054938;28;20095;-72
2020/12/04 04:37:37;;;;;;;33.15;17.50;;;14.60;50.20;;;;;;5060359;28;20024;-72
2020/12/04 04:40:04;;;;;;;19.00;8.30;;;14.60;49.90;;;;;;5074985;28;20052;-72
2020/12/04 04:42:31;;;;;;;18.75;7.72;;;14.50;50.00;;;;;;5072669;28;20035;-72
2020/12/04 04:44:58;;;;;;;20.73;7.97;;;14.40;50.20;;;;;;5070187;28;20071;-72
2020/12/04 04:47:31;;;;;;;137.45;60.38;;;14.50;50.10;;;;;;5072143;28;20017;-72
2020/12/04 04:49:58;;;;;;;49.67;21.27;;;14.50;50.30;;;;;;5074200;28;20023;-71
2020/12/04 04:52:25;;;;;;;25.25;7.90;;;14.40;50.50;;;;;;5070235;28;20445;-71
2020/12/04 04:54:52;;;;;;;18.45;8.02;;;14.50;50.20;;;;;;5069334;28;20032;-72
2020/12/04 04:57:24;;;;;;;14.35;7.13;;;14.60;50.10;;;;;;5064948;28;20028;-72
2020/12/04 04:59:54;;;;;;;15.98;7.45;;;14.60;49.90;;;;;;5075458;28;20099;-72
2020/12/04 05:02:20;;;;;;;15.68;7.43;;;14.40;50.30;;;;;;5075966;28;20021;-72
2020/12/04 05:04:48;;;;;;;20.58;6.93;;;14.40;50.20;;;;;;5061852;28;20111;-72
2020/12/04 05:07:29;;;;;;;17.20;6.47;;;14.40;50.00;;;;;;5072659;28;20094;-70
2020/12/04 05:10:15;;;;;;;12.00;7.00;;;14.10;51.50;;;;;;5070215;28;20135;-70
2020/12/04 05:12:58;;;;;;;17.65;8.18;;;14.00;51.00;;;;;;5069696;28;20465;-70
2020/12/04 05:15:29;;;;;;;26.38;8.38;;;14.00;50.80;;;;;;5064529;28;20040;-70
2020/12/04 05:18:15;;;;;;;16.73;7.35;;;13.90;50.90;;;;;;5070911;28;20415;-70
2020/12/04 05:20:45;;;;;;;15.23;7.10;;;13.80;51.10;;;;;;5066476;28;20021;-70
2020/12/04 05:23:13;;;;;;;22.85;8.77;;;13.90;50.90;;;;;;5064691;28;20109;-70
2020/12/04 05:25:42;;;;;;;23.00;7.75;;;13.90;50.60;;;;;;5067746;28;20025;-70
2020/12/04 05:28:19;;;;;;;20.70;7.20;;;13.90;50.50;;;;;;5075025;28;20468;-72
2020/12/04 05:30:50;;;;;;;16.83;7.13;;;13.70;50.40;;;;;;5070839;28;20465;-70
2020/12/04 05:33:18;;;;;;;16.58;9.55;;;13.70;50.70;;;;;;5070370;28;20057;-70
2020/12/04 05:35:51;;;;;;;21.02;8.68;;;13.80;51.00;;;;;;5066998;28;20369;-70
2020/12/04 05:38:19;;;;;;;19.33;8.30;;;13.80;50.60;;;;;;5070745;28;20082;-70
2020/12/04 05:40:51;;;;;;;19.55;8.32;;;13.60;51.30;;;;;;5074452;28;20020;-70
2020/12/04 05:43:32;;;;;;;22.88;9.93;;;13.50;51.50;;;;;;5068370;28;20028;-70
2020/12/04 05:46:22;;;;;;;17.92;7.55;;;13.60;51.30;;;;;;5068209;28;20492;-70
2020/12/04 05:49:09;;;;;;;21.00;7.88;;;13.60;51.20;;;;;;5064276;28;20043;-70
2020/12/04 05:51:40;;;;;;;23.52;9.85;;;13.60;51.40;;;;;;5064709;28;20063;-70
2020/12/04 05:54:08;;;;;;;21.00;8.30;;;13.50;51.50;;;;;;5062689;28;20025;-70
2020/12/04 05:56:35;;;;;;;22.33;11.40;;;13.40;51.90;;;;;;5063384;28;20024;-70
2020/12/04 05:59:10;;;;;;;21.45;9.32;;;13.30;52.00;;;;;;5067280;28;20548;-71
2020/12/04 06:01:36;;;;;;;17.92;10.63;;;13.30;52.80;;;;;;5062862;28;20025;-70
2020/12/04 06:04:02;;;;;;;19.42;10.00;;;13.20;52.70;;;;;;5072803;28;20473;-72
2020/12/04 06:06:33;;;;;;;26.10;11.65;;;13.20;52.80;;;;;;5063119;28;20025;-70
2020/12/04 06:09:04;;;;;;;23.20;11.98;;;13.20;53.00;;;;;;5070353;28;20346;-70
2020/12/04 06:11:32;;;;;;;25.92;9.50;;;13.30;52.60;;;;;;5067521;28;20047;-70
2020/12/04 06:13:59;;;;;;;18.45;9.77;;;13.20;52.90;;;;;;5071281;28;20032;-70
2020/12/04 06:16:26;;;;;;;23.98;10.52;;;13.20;52.80;;;;;;5064958;28;20366;-70
2020/12/04 06:18:52;;;;;;;23.67;11.13;;;13.10;53.10;;;;;;5083351;28;20029;-70
2020/12/04 06:21:49;;;;;;;20.10;10.75;;;13.10;53.30;;;;;;5083596;28;20032;-70
2020/12/04 06:24:16;;;;;;;23.05;9.65;;;13.00;53.20;;;;;;5067409;28;20488;-70
2020/12/04 06:26:49;;;;;;;22.38;10.15;;;13.00;53.20;;;;;;5077582;28;20399;-70
2020/12/04 06:29:17;;;;;;;22.55;9.18;;;12.90;53.40;;;;;;5074093;28;20037;-70
2020/12/04 06:31:44;;;;;;;22.15;10.18;;;12.80;53.40;;;;;;5076945;28;20056;-70
2020/12/04 06:34:18;;;;;;;16.42;8.88;;;12.70;53.90;;;;;;5075405;28;20024;-70
2020/12/04 06:36:45;;;;;;;23.95;9.98;;;12.50;54.00;;;;;;5082087;28;20032;-70
2020/12/04 06:39:28;;;;;;;22.00;10.82;;;12.50;54.10;;;;;;5067806;28;20040;-70
2020/12/04 06:41:54;;;;;;;18.00;9.93;;;12.60;53.80;;;;;;5069681;28;20016;-70
2020/12/04 06:44:23;;;;;;;18.52;8.85;;;12.60;54.10;;;;;;5070247;28;20017;-70
2020/12/04 06:46:57;;;;;;;19.98;8.73;;;12.50;54.10;;;;;;5073088;28;20579;-70
2020/12/04 06:49:39;;;;;;;24.58;10.40;;;12.40;53.90;;;;;;5075963;28;20033;-70
2020/12/04 06:52:13;;;;;;;32.25;10.00;;;12.50;53.70;;;;;;5078117;28;20473;-70
2020/12/04 06:54:47;;;;;;;22.25;9.00;;;12.70;53.40;;;;;;5074703;28;20033;-70
2020/12/04 06:57:16;;;;;;;23.60;9.55;;;12.50;54.50;;;;;;5077249;28;20174;-70
2020/12/04 06:59:43;;;;;;;19.85;9.50;;;12.30;53.80;;;;;;5072807;28;20061;-70
2020/12/04 07:02:18;;;;;;;20.42;9.60;;;12.20;53.70;;;;;;5077093;28;20021;-70
2020/12/04 07:04:46;;;;;;;19.98;8.77;;;12.40;54.10;;;;;;5084607;28;20020;-71
2020/12/04 07:07:18;;;;;;;18.30;9.07;;;12.30;54.10;;;;;;5076487;28;20031;-70
2020/12/04 07:09:52;;;;;;;23.88;9.90;;;12.20;54.30;;;;;;5086325;28;20492;-72
2020/12/04 07:12:20;;;;;;;19.33;9.15;;;12.00;54.30;;;;;;5076920;28;20017;-71
2020/12/04 07:14:51;;;;;;;20.30;8.40;;;12.00;53.70;;;;;;5079690;28;20017;-70
2020/12/04 07:17:19;;;;;;;27.02;10.00;;;12.10;53.90;;;;;;5074306;28;20504;-70
2020/12/04 07:19:50;;;;;;;20.70;11.50;;;12.20;53.90;;;;;;5076635;28;20092;-70
2020/12/04 07:22:21;;;;;;;21.70;11.57;;;12.30;53.90;;;;;;5075878;28;20406;-70
2020/12/04 07:24:49;;;;;;;17.10;8.85;;;12.20;53.60;;;;;;5072071;28;20174;-70
2020/12/04 07:27:17;;;;;;;22.23;9.45;;;12.20;53.70;;;;;;5073562;28;20028;-70
2020/12/04 07:29:44;;;;;;;26.75;10.27;;;12.10;53.80;;;;;;5062290;28;20040;-70
2020/12/04 07:32:11;;;;;;;22.58;11.30;;;12.10;54.10;;;;;;5074843;28;20104;-70
2020/12/04 07:34:39;;;;;;;26.67;12.05;;;12.10;54.80;;;;;;5073561;28;20050;-70
2020/12/04 07:37:07;;;;;;;21.13;11.13;;;12.20;54.30;;;;;;5065647;28;20016;-70
2020/12/04 07:39:38;;;;;;;24.60;9.73;;;12.10;54.20;;;;;;5075196;28;20039;-70
2020/12/04 07:42:06;;;;;;;19.45;10.52;;;12.10;54.30;;;;;;5074452;28;20021;-70
2020/12/04 07:44:45;;;;;;;21.15;10.02;;;12.10;54.30;;;;;;5074265;28;20107;-70
2020/12/04 07:47:16;;;;;;;16.35;9.07;;;12.00;54.40;;;;;;5070602;28;20020;-70
2020/12/04 07:49:44;;;;;;;18.48;9.38;;;11.90;54.40;;;;;;5075259;28;20040;-70
2020/12/04 07:52:23;;;;;;;18.27;9.23;;;11.80;54.80;;;;;;5071777;28;20074;-70
2020/12/04 07:55:09;;;;;;;16.80;8.88;;;11.70;54.60;;;;;;5074473;28;20437;-70
2020/12/04 07:57:44;;;;;;;17.17;9.18;;;11.70;54.90;;;;;;5075065;28;20024;-70
2020/12/04 08:00:15;;;;;;;22.48;9.23;;;11.80;55.00;;;;;;5072470;28;20028;-70
2020/12/04 08:02:41;;;;;;;16.67;8.70;;;11.70;55.30;;;;;;5070973;28;20028;-70
2020/12/04 08:05:08;;;;;;;14.77;9.57;;;11.90;55.60;;;;;;5075160;28;20020;-70
2020/12/04 08:11:33;;;;;;;16.13;8.35;;;11.80;55.30;;;;;;5067377;28;20035;-70
2020/12/04 08:14:03;;;;;;;20.42;9.02;;;11.90;55.60;;;;;;5070468;28;20370;-70
2020/12/04 08:16:31;;;;;;;22.98;9.85;;;11.80;55.30;;;;;;5074600;28;20032;-70
2020/12/04 08:19:11;;;;;;;17.13;9.13;;;11.80;55.40;;;;;;5074117;28;20090;-70
2020/12/04 08:21:54;;;;;;;19.60;9.95;;;12.00;55.80;;;;;;5074999;28;20351;-70
2020/12/04 08:24:31;;;;;;;17.42;9.30;;;11.90;55.10;;;;;;5075214;28;20019;-70
2020/12/04 08:27:07;;;;;;;15.07;9.35;;;11.70;55.40;;;;;;5073580;28;20087;-70
2020/12/04 08:29:35;;;;;;;17.30;9.93;;;11.70;55.80;;;;;;5073060;28;20020;-70
2020/12/04 08:32:18;;;;;;;13.27;9.05;;;11.80;56.00;;;;;;5072735;28;20036;-70
2020/12/04 08:34:45;;;;;;;20.50;9.73;;;11.70;55.60;;;;;;5073150;28;20032;-70
2020/12/04 08:37:13;;;;;;;20.13;11.07;;;11.60;55.70;;;;;;5073465;28;20335;-70
2020/12/04 08:39:43;;;;;;;22.73;10.05;;;11.70;55.80;;;;;;5074433;28;20029;-70
2020/12/04 08:42:22;;;;;;;14.90;8.50;;;11.60;55.90;;;;;;5074187;28;20025;-71
2020/12/04 08:45:24;;;;;;;24.52;11.02;;;11.50;55.80;;;;;;5074120;28;20445;-71
2020/12/04 08:47:51;;;;;;;16.92;10.00;;;11.60;56.30;;;;;;5053335;28;20044;-70
2020/12/04 08:50:21;;;;;;;18.05;9.90;;;11.70;56.50;;;;;;5074783;28;20028;-70
2020/12/04 08:52:53;;;;;;;18.95;9.93;;;11.60;56.30;;;;;;5073827;28;20059;-70
2020/12/04 08:55:24;;;;;;;28.02;10.05;;;11.60;56.20;;;;;;5075761;28;20021;-70
2020/12/04 08:57:53;;;;;;;21.35;10.95;;;11.60;56.30;;;;;;5074708;28;20089;-70
2020/12/04 09:00:33;;;;;;;22.55;11.07;;;11.50;56.30;;;;;;5073912;28;20094;-70
2020/12/04 09:03:00;;;;;;;22.92;10.07;;;11.50;56.30;;;;;;5075026;28;20082;-70
2020/12/04 09:05:27;;;;;;;22.70;10.98;;;11.40;56.70;;;;;;5073828;28;20028;-70
2020/12/04 09:07:53;;;;;;;19.33;9.68;;;11.40;56.50;;;;;;5071120;28;20028;-70
2020/12/04 09:10:20;;;;;;;17.55;9.05;;;11.40;56.50;;;;;;5073583;28;20032;-70
2020/12/04 09:12:48;;;;;;;23.70;10.07;;;11.40;56.80;;;;;;5072360;28;20029;-70
2020/12/04 09:15:16;;;;;;;19.95;9.90;;;11.30;56.80;;;;;;5071789;28;20036;-70
2020/12/04 09:17:43;;;;;;;21.85;9.35;;;11.40;57.20;;;;;;5073573;28;20089;-70
2020/12/04 09:20:11;;;;;;;19.77;10.00;;;11.50;57.20;;;;;;5073980;28;20077;-70
2020/12/04 09:22:39;;;;;;;20.48;10.65;;;11.40;56.90;;;;;;5073828;28;20021;-70
2020/12/04 09:25:07;;;;;;;20.55;9.27;;;11.30;56.90;;;;;;5073098;28;20023;-70
2020/12/04 09:27:34;;;;;;;28.45;12.45;;;11.20;57.30;;;;;;5068781;28;20028;-70
2020/12/04 09:30:00;;;;;;;21.67;10.45;;;11.20;57.50;;;;;;5074599;28;20450;-70
2020/12/04 09:32:28;;;;;;;19.30;11.25;;;11.30;57.70;;;;;;5071610;28;20028;-70
2020/12/04 09:34:54;;;;;;;16.75;9.07;;;11.30;57.60;;;;;;5073015;28;20020;-70
2020/12/04 09:37:28;;;;;;;18.13;9.85;;;11.30;57.50;;;;;;5072860;28;20020;-70
2020/12/04 09:40:15;;;;;;;22.45;10.82;;;11.20;57.30;;;;;;5073709;28;20028;-70
2020/12/04 09:42:42;;;;;;;20.58;10.18;;;11.10;57.30;;;;;;5069857;28;20039;-70
2020/12/04 09:45:10;;;;;;;26.08;9.82;;;11.00;57.60;;;;;;5073741;28;20021;-70
2020/12/04 09:47:37;;;;;;;26.25;9.13;;;11.00;57.80;;;;;;5070433;28;20056;-70
2020/12/04 09:50:12;;;;;;;23.52;10.05;;;11.00;57.90;;;;;;5072327;28;20329;-70
2020/12/04 09:52:39;;;;;;;25.13;8.77;;;11.00;58.10;;;;;;5074602;28;20008;-70
2020/12/04 09:55:08;;;;;;;21.77;10.02;;;10.90;58.00;;;;;;5072140;28;20020;-70
2020/12/04 09:57:34;;;;;;;23.55;11.23;;;10.90;57.80;;;;;;5071921;28;20106;-70
2020/12/04 10:00:05;;;;;;;21.27;9.88;;;10.90;57.90;;;;;;5072985;28;20092;-70
2020/12/04 10:02:32;;;;;;;15.52;8.27;;;10.70;58.30;;;;;;5071706;28;20022;-70
2020/12/04 10:04:58;;;;;;;18.40;9.57;;;10.60;58.50;;;;;;5072609;28;20035;-70
2020/12/04 10:07:25;;;;;;;26.98;10.48;;;10.50;58.60;;;;;;5073015;28;20108;-70
2020/12/04 10:09:52;;;;;;;27.88;11.80;;;10.50;58.20;;;;;;5074259;28;20078;-70
2020/12/04 10:12:19;;;;;;;23.38;11.13;;;10.60;58.40;;;;;;5072948;28;20107;-70
2020/12/04 10:14:45;;;;;;;20.17;10.40;;;10.60;58.70;;;;;;5070881;28;20054;-70
2020/12/04 10:17:12;;;;;;;30.45;12.23;;;10.60;58.10;;;;;;5072343;28;20446;-70
2020/12/04 10:19:38;;;;;;;30.13;12.57;;;10.50;58.40;;;;;;5072628;28;20350;-70
2020/12/04 10:22:05;;;;;;;29.88;11.80;;;10.60;58.30;;;;;;5073150;28;20017;-70
2020/12/04 10:24:32;;;;;;;25.98;12.02;;;10.50;58.30;;;;;;5071698;28;20024;-70
2020/12/04 10:26:58;;;;;;;26.10;11.32;;;10.60;58.60;;;;;;5072374;28;20024;-70
2020/12/04 10:29:25;;;;;;;20.67;11.10;;;10.50;58.20;;;;;;5069767;28;20155;-70
2020/12/04 10:31:51;;;;;;;24.77;12.35;;;10.40;58.30;;;;;;5071563;28;20056;-70
2020/12/04 10:34:18;;;;;;;24.65;13.70;;;10.40;58.50;;;;;;5064248;28;20037;-70
2020/12/04 10:36:45;;;;;;;32.97;11.48;;;10.40;58.70;;;;;;5073108;28;20028;-70
2020/12/04 10:39:13;;;;;;;26.88;11.93;;;10.40;59.20;;;;;;5072943;28;20039;-70
2020/12/04 10:41:41;;;;;;;25.85;12.77;;;10.50;59.30;;;;;;5070526;28;20023;-70
2020/12/04 10:44:09;;;;;;;21.05;11.85;;;10.50;58.60;;;;;;5072245;28;20036;-70
2020/12/04 10:46:37;;;;;;;19.85;11.82;;;10.60;58.80;;;;;;5070901;28;20039;-70
2020/12/04 10:49:04;;;;;;;34.63;11.50;;;10.60;58.80;;;;;;5071843;28;20593;-70
2020/12/04 10:51:31;;;;;;;19.65;11.98;;;10.60;58.60;;;;;;5065037;28;20024;-70
2020/12/04 10:53:57;;;;;;;20.17;11.45;;;10.50;58.60;;;;;;5070095;28;20017;-70
2020/12/04 10:56:24;;;;;;;32.90;13.07;;;10.40;58.80;;;;;;5072945;28;20040;-70
2020/12/04 10:58:52;;;;;;;28.02;11.18;;;10.30;59.00;;;;;;5072885;28;20032;-70
2020/12/04 11:01:41;;;;;;;22.42;13.80;;;10.40;59.40;;;;;;5069844;28;20024;-70
2020/12/04 11:06:52;;;;;;;22.25;11.82;;;10.20;60.00;;;;;;5075822;28;20366;-70
2020/12/04 11:09:18;;;;;;;27.52;13.75;;;10.10;59.70;;;;;;5074940;28;20024;-70
2020/12/04 11:11:45;;;;;;;30.52;11.02;;;10.00;59.70;;;;;;5076695;28;20032;-70
2020/12/04 11:14:12;;;;;;;30.30;12.20;;;10.00;60.00;;;;;;5076762;28;20032;-70
2020/12/04 11:16:43;;;;;;;23.00;11.57;;;10.00;60.00;;;;;;5066522;28;20036;-70
2020/12/04 11:19:10;;;;;;;22.85;12.05;;;9.90;60.30;;;;;;5068724;28;20024;-71
2020/12/04 11:21:37;;;;;;;23.67;10.93;;;10.00;60.20;;;;;;5077542;28;20670;-72
2020/12/04 11:24:04;;;;;;;26.17;12.18;;;10.00;59.80;;;;;;5080995;28;20017;-73
2020/12/04 11:26:31;;;;;;;27.30;11.30;;;9.80;59.60;;;;;;5078276;28;20033;-71
2020/12/04 11:28:57;;;;;;;23.50;12.07;;;9.80;60.00;;;;;;5073967;28;20025;-70
2020/12/04 11:31:24;;;;;;;26.77;11.52;;;9.80;60.40;;;;;;5076425;28;20103;-70
2020/12/04 11:33:50;;;;;;;21.92;13.15;;;10.00;60.00;;;;;;5074657;28;20331;-70
2020/12/04 11:36:17;;;;;;;23.20;12.85;;;10.00;60.20;;;;;;5076790;28;20035;-70
2020/12/04 11:38:43;;;;;;;21.05;10.57;;;10.00;60.00;;;;;;5075528;28;20374;-70
2020/12/04 11:41:10;;;;;;;27.30;12.85;;;9.90;59.90;;;;;;5076435;28;20051;-70
2020/12/04 11:43:37;;;;;;;18.10;10.52;;;9.70;60.20;;;;;;5075291;28;20028;-70
2020/12/04 11:46:03;;;;;;;25.17;12.00;;;9.70;60.60;;;;;;5073509;28;20111;-70
2020/12/04 11:48:30;;;;;;;23.48;12.23;;;9.80;61.00;;;;;;5072885;28;20039;-70
2020/12/04 11:50:56;;;;;;;24.40;12.32;;;10.00;61.00;;;;;;5070785;28;20103;-70
2020/12/04 11:53:23;;;;;;;28.60;13.98;;;10.00;61.00;;;;;;5075453;28;20082;-70
2020/12/04 11:55:52;;;;;;;25.27;12.07;;;10.00;60.30;;;;;;5074575;28;20035;-70
2020/12/04 11:58:19;;;;;;;28.52;11.57;;;10.00;60.70;;;;;;5073673;28;20021;-70
2020/12/04 12:00:45;;;;;;;27.90;13.60;;;10.00;60.90;;;;;;5073603;28;20447;-70
2020/12/04 12:03:12;;;;;;;21.77;12.80;;;10.10;60.90;;;;;;5075356;28;20102;-70
2020/12/04 12:05:38;;;;;;;25.60;12.43;;;10.10;60.60;;;;;;5069079;28;20047;-70
2020/12/04 12:08:08;;;;;;;25.83;12.13;;;10.10;60.50;;;;;;5067418;28;20103;-70
2020/12/04 12:10:34;;;;;;;31.65;14.00;;;10.20;60.60;;;;;;5073448;28;20112;-70
2020/12/04 12:13:01;;;;;;;34.63;14.60;;;10.20;60.20;;;;;;5075573;28;20082;-70
2020/12/04 12:15:28;;;;;;;32.78;14.38;;;10.20;60.60;;;;;;5072783;28;20062;-70
2020/12/04 12:17:54;;;;;;;35.55;13.02;;;10.10;60.60;;;;;;5076114;28;20028;-70
2020/12/04 12:20:21;;;;;;;26.48;12.38;;;10.10;60.50;;;;;;5077696;28;20143;-72
2020/12/04 12:22:47;;;;;;;20.60;11.77;;;10.20;60.40;;;;;;5074561;28;20373;-70
2020/12/04 12:25:14;;;;;;;24.90;14.73;;;10.00;60.20;;;;;;5075761;28;20362;-70
2020/12/04 12:27:41;;;;;;;32.55;14.05;;;10.00;60.70;;;;;;5075408;28;20043;-70
2020/12/04 12:30:08;;;;;;;28.83;13.48;;;10.10;61.00;;;;;;5074585;28;20017;-70
2020/12/04 12:32:35;;;;;;;30.63;14.13;;;10.00;60.30;;;;;;5074114;28;20021;-70
2020/12/04 12:35:14;;;;;;;26.15;15.20;;;10.10;61.20;;;;;;5074954;28;20068;-70
2020/12/04 12:37:44;;;;;;;20.55;12.95;;;10.10;61.00;;;;;;5072941;28;20021;-70
2020/12/04 12:40:12;;;;;;;24.58;15.27;;;10.10;60.60;;;;;;5073452;28;20020;-70
2020/12/04 12:42:39;;;;;;;35.63;15.88;;;10.00;60.70;;;;;;5074939;28;20017;-70
2020/12/04 12:45:07;;;;;;;28.10;15.25;;;9.90;61.00;;;;;;5074720;28;20154;-70
2020/12/04 12:47:34;;;;;;;31.75;17.52;;;9.90;60.90;;;;;;5075868;28;20016;-70